sensor_id;sensor_type;location;lat;lon;timestamp;temperature;humidity
57753;DHT22;43583;53.132;6.574;2023-08-31T00:00:31;10.60;99.90
57753;DHT22;43583;53.132;6.574;2023-08-31T00:02:59;10.50;99.90
57753;DHT22;43583;53.132;6.574;2023-08-31T00:05:25;10.50;99.90
57753;DHT22;43583;53.132;6.574;2023-08-31T00:07:54;10.60;99.90
57753;DHT22;43583;53.132;6.574;2023-08-31T00:10:19;10.60;99.90
57753;DHT22;43583;53.132;6.574;2023-08-31T00:12:45;10.70;99.90
57753;DHT22;43583;53.132;6.574;2023-08-31T00:15:10;10.80;99.90
57753;DHT22;43583;53.132;6.574;2023-08-31T00:17:36;10.80;99.90
57753;DHT22;43583;53.132;6.574;2023-08-31T00:20:04;10.90;99.90
57753;DHT22;43583;53.132;6.574;2023-08-31T00:22:31;10.90;99.90
57753;DHT22;43583;53.132;6.574;2023-08-31T00:24:57;10.90;99.90
57753;DHT22;43583;53.132;6.574;2023-08-31T00:27:22;11.00;99.90
57753;DHT22;43583;53.132;6.574;2023-08-31T00:29:48;11.00;99.90
57753;DHT22;43583;53.132;6.574;2023-08-31T00:32:17;11.00;99.90
57753;DHT22;43583;53.132;6.574;2023-08-31T00:34:44;11.00;99.90
57753;DHT22;43583;53.132;6.574;2023-08-31T00:37:09;11.00;99.90
57753;DHT22;43583;53.132;6.574;2023-08-31T00:39:35;11.00;99.90
57753;DHT22;43583;53.132;6.574;2023-08-31T00:42:01;11.00;99.90
57753;DHT22;43583;53.132;6.574;2023-08-31T00:44:26;11.00;99.90
57753;DHT22;43583;53.132;6.574;2023-08-31T00:46:53;11.00;99.90
57753;DHT22;43583;53.132;6.574;2023-08-31T00:49:19;11.00;99.90
57753;DHT22;43583;53.132;6.574;2023-08-31T00:51:45;10.90;99.90
57753;DHT22;43583;53.132;6.574;2023-08-31T00:54:19;10.80;99.90
57753;DHT22;43583;53.132;6.574;2023-08-31T00:56:46;10.80;99.90
57753;DHT22;43583;53.132;6.574;2023-08-31T00:59:12;10.70;99.90
57753;DHT22;43583;53.132;6.574;2023-08-31T01:01:43;10.70;99.90
57753;DHT22;43583;53.132;6.574;2023-08-31T01:04:25;10.70;99.90
57753;DHT22;43583;53.132;6.574;2023-08-31T01:10:21;10.50;99.90
57753;DHT22;43583;53.132;6.574;2023-08-31T01:12:54;10.40;99.90
57753;DHT22;43583;53.132;6.574;2023-08-31T01:15:25;10.40;99.90
57753;DHT22;43583;53.132;6.574;2023-08-31T01:17:54;10.30;99.90
57753;DHT22;43583;53.132;6.574;2023-08-31T01:20:28;10.20;99.90
57753;DHT22;43583;53.132;6.574;2023-08-31T01:23:02;10.20;99.90
57753;DHT22;43583;53.132;6.574;2023-08-31T01:25:31;10.10;99.90
57753;DHT22;43583;53.132;6.574;2023-08-31T01:27:59;10.00;99.90
57753;DHT22;43583;53.132;6.574;2023-08-31T01:30:25;9.90;99.90
57753;DHT22;43583;53.132;6.574;2023-08-31T01:32:50;9.90;99.90
57753;DHT22;43583;53.132;6.574;2023-08-31T01:35:17;9.80;99.90
57753;DHT22;43583;53.132;6.574;2023-08-31T01:37:50;9.80;99.90
57753;DHT22;43583;53.132;6.574;2023-08-31T01:40:17;9.70;99.90
57753;DHT22;43583;53.132;6.574;2023-08-31T01:42:46;9.70;99.90
57753;DHT22;43583;53.132;6.574;2023-08-31T01:45:15;9.50;99.90
57753;DHT22;43583;53.132;6.574;2023-08-31T01:47:42;9.50;99.90
57753;DHT22;43583;53.132;6.574;2023-08-31T01:50:08;9.40;99.90
57753;DHT22;43583;53.132;6.574;2023-08-31T01:52:34;9.40;99.90
57753;DHT22;43583;53.132;6.574;2023-08-31T01:54:59;9.40;99.90
57753;DHT22;43583;53.132;6.574;2023-08-31T01:57:25;9.30;99.90
57753;DHT22;43583;53.132;6.574;2023-08-31T01:59:50;9.20;99.90
57753;DHT22;43583;53.132;6.574;2023-08-31T02:02:16;9.20;99.90
57753;DHT22;43583;53.132;6.574;2023-08-31T02:04:43;9.20;99.90
57753;DHT22;43583;53.132;6.574;2023-08-31T02:07:08;9.20;99.90
57753;DHT22;43583;53.132;6.574;2023-08-31T02:09:34;9.20;99.90
57753;DHT22;43583;53.132;6.574;2023-08-31T02:11:59;9.10;99.90
57753;DHT22;43583;53.132;6.574;2023-08-31T02:14:25;9.10;99.90
57753;DHT22;43583;53.132;6.574;2023-08-31T02:16:50;9.00;99.90
57753;DHT22;43583;53.132;6.574;2023-08-31T02:19:16;9.00;99.90
57753;DHT22;43583;53.132;6.574;2023-08-31T02:21:41;9.00;99.90
57753;DHT22;43583;53.132;6.574;2023-08-31T02:24:07;9.00;99.90
57753;DHT22;43583;53.132;6.574;2023-08-31T02:26:35;9.00;99.90
57753;DHT22;43583;53.132;6.574;2023-08-31T02:29:00;9.00;99.90
57753;DHT22;43583;53.132;6.574;2023-08-31T02:31:26;9.00;99.90
57753;DHT22;43583;53.132;6.574;2023-08-31T02:33:51;9.00;99.90
57753;DHT22;43583;53.132;6.574;2023-08-31T02:36:18;9.10;99.90
57753;DHT22;43583;53.132;6.574;2023-08-31T02:38:45;9.00;99.90
57753;DHT22;43583;53.132;6.574;2023-08-31T02:41:12;9.00;99.90
57753;DHT22;43583;53.132;6.574;2023-08-31T02:43:38;9.00;99.90
57753;DHT22;43583;53.132;6.574;2023-08-31T02:46:04;9.00;99.90
57753;DHT22;43583;53.132;6.574;2023-08-31T02:48:31;9.00;99.90
57753;DHT22;43583;53.132;6.574;2023-08-31T02:50:58;9.10;99.90
57753;DHT22;43583;53.132;6.574;2023-08-31T02:53:26;9.10;99.90
57753;DHT22;43583;53.132;6.574;2023-08-31T02:55:52;9.10;99.90
57753;DHT22;43583;53.132;6.574;2023-08-31T02:58:18;9.10;99.90
57753;DHT22;43583;53.132;6.574;2023-08-31T03:00:44;9.10;99.90
57753;DHT22;43583;53.132;6.574;2023-08-31T03:03:13;9.10;99.90
57753;DHT22;43583;53.132;6.574;2023-08-31T03:05:39;9.10;99.90
57753;DHT22;43583;53.132;6.574;2023-08-31T03:08:05;9.10;99.90
57753;DHT22;43583;53.132;6.574;2023-08-31T03:10:31;9.10;99.90
57753;DHT22;43583;53.132;6.574;2023-08-31T03:12:56;9.10;99.90
57753;DHT22;43583;53.132;6.574;2023-08-31T03:15:22;9.00;99.90
57753;DHT22;43583;53.132;6.574;2023-08-31T03:17:47;9.00;99.90
57753;DHT22;43583;53.132;6.574;2023-08-31T03:20:13;9.10;99.90
57753;DHT22;43583;53.132;6.574;2023-08-31T03:22:38;9.10;99.90
57753;DHT22;43583;53.132;6.574;2023-08-31T03:25:04;9.10;99.90
57753;DHT22;43583;53.132;6.574;2023-08-31T03:27:29;9.10;99.90
57753;DHT22;43583;53.132;6.574;2023-08-31T03:29:55;9.10;99.90
57753;DHT22;43583;53.132;6.574;2023-08-31T03:32:20;9.10;99.90
57753;DHT22;43583;53.132;6.574;2023-08-31T03:34:46;9.20;99.90
57753;DHT22;43583;53.132;6.574;2023-08-31T03:37:12;9.30;99.90
57753;DHT22;43583;53.132;6.574;2023-08-31T03:39:37;9.40;99.90
57753;DHT22;43583;53.132;6.574;2023-08-31T03:42:03;9.50;99.90
57753;DHT22;43583;53.132;6.574;2023-08-31T03:44:28;9.60;99.90
57753;DHT22;43583;53.132;6.574;2023-08-31T03:46:54;9.80;99.90
57753;DHT22;43583;53.132;6.574;2023-08-31T03:49:19;9.90;99.90
57753;DHT22;43583;53.132;6.574;2023-08-31T03:51:45;10.00;99.90
57753;DHT22;43583;53.132;6.574;2023-08-31T03:54:11;10.00;99.90
57753;DHT22;43583;53.132;6.574;2023-08-31T03:56:38;10.00;99.90
57753;DHT22;43583;53.132;6.574;2023-08-31T03:59:04;10.10;99.90
57753;DHT22;43583;53.132;6.574;2023-08-31T04:01:30;10.10;99.90
57753;DHT22;43583;53.132;6.574;2023-08-31T04:03:56;10.10;99.90
57753;DHT22;43583;53.132;6.574;2023-08-31T04:06:22;10.10;99.90
57753;DHT22;43583;53.132;6.574;2023-08-31T04:08:47;10.10;99.90
57753;DHT22;43583;53.132;6.574;2023-08-31T04:11:13;10.10;99.90
57753;DHT22;43583;53.132;6.574;2023-08-31T04:13:38;10.10;99.90
57753;DHT22;43583;53.132;6.574;2023-08-31T04:16:04;10.20;99.90
57753;DHT22;43583;53.132;6.574;2023-08-31T04:18:30;10.20;99.90
57753;DHT22;43583;53.132;6.574;2023-08-31T04:20:55;10.30;99.90
57753;DHT22;43583;53.132;6.574;2023-08-31T04:23:24;10.30;99.90
57753;DHT22;43583;53.132;6.574;2023-08-31T04:25:49;10.40;99.90
57753;DHT22;43583;53.132;6.574;2023-08-31T04:28:16;10.40;99.90
57753;DHT22;43583;53.132;6.574;2023-08-31T04:30:42;10.40;99.90
57753;DHT22;43583;53.132;6.574;2023-08-31T04:33:08;10.40;99.90
57753;DHT22;43583;53.132;6.574;2023-08-31T04:35:34;10.40;99.90
57753;DHT22;43583;53.132;6.574;2023-08-31T04:37:59;10.40;99.90
57753;DHT22;43583;53.132;6.574;2023-08-31T04:40:27;10.40;99.90
57753;DHT22;43583;53.132;6.574;2023-08-31T04:42:53;10.40;99.90
57753;DHT22;43583;53.132;6.574;2023-08-31T04:45:19;10.30;99.90
57753;DHT22;43583;53.132;6.574;2023-08-31T04:47:44;10.30;99.90
57753;DHT22;43583;53.132;6.574;2023-08-31T04:50:10;10.30;99.90
57753;DHT22;43583;53.132;6.574;2023-08-31T04:52:36;10.30;99.90
57753;DHT22;43583;53.132;6.574;2023-08-31T04:55:01;10.30;99.90
57753;DHT22;43583;53.132;6.574;2023-08-31T04:57:29;10.30;99.90
57753;DHT22;43583;53.132;6.574;2023-08-31T04:59:55;10.30;99.90
57753;DHT22;43583;53.132;6.574;2023-08-31T05:02:20;10.30;99.90
57753;DHT22;43583;53.132;6.574;2023-08-31T05:04:46;10.40;99.90
57753;DHT22;43583;53.132;6.574;2023-08-31T05:07:11;10.40;99.90
57753;DHT22;43583;53.132;6.574;2023-08-31T05:09:37;10.50;99.90
57753;DHT22;43583;53.132;6.574;2023-08-31T05:12:03;10.80;99.90
57753;DHT22;43583;53.132;6.574;2023-08-31T05:14:29;11.20;99.90
57753;DHT22;43583;53.132;6.574;2023-08-31T05:16:55;11.60;99.90
57753;DHT22;43583;53.132;6.574;2023-08-31T05:19:20;11.70;99.90
57753;DHT22;43583;53.132;6.574;2023-08-31T05:21:46;11.70;99.90
57753;DHT22;43583;53.132;6.574;2023-08-31T05:24:12;12.20;99.90
57753;DHT22;43583;53.132;6.574;2023-08-31T05:26:38;12.70;99.90
57753;DHT22;43583;53.132;6.574;2023-08-31T05:29:04;13.20;99.90
57753;DHT22;43583;53.132;6.574;2023-08-31T05:31:30;13.90;99.90
57753;DHT22;43583;53.132;6.574;2023-08-31T05:33:56;14.60;99.90
57753;DHT22;43583;53.132;6.574;2023-08-31T05:36:22;15.10;99.90
57753;DHT22;43583;53.132;6.574;2023-08-31T05:38:47;15.00;99.90
57753;DHT22;43583;53.132;6.574;2023-08-31T05:41:13;14.70;99.90
57753;DHT22;43583;53.132;6.574;2023-08-31T05:43:38;14.40;99.90
57753;DHT22;43583;53.132;6.574;2023-08-31T05:46:07;14.00;99.90
57753;DHT22;43583;53.132;6.574;2023-08-31T05:48:33;13.80;99.90
57753;DHT22;43583;53.132;6.574;2023-08-31T05:50:59;13.50;99.90
57753;DHT22;43583;53.132;6.574;2023-08-31T05:53:25;13.40;99.90
57753;DHT22;43583;53.132;6.574;2023-08-31T05:55:50;13.20;99.90
57753;DHT22;43583;53.132;6.574;2023-08-31T05:58:16;13.10;99.90
57753;DHT22;43583;53.132;6.574;2023-08-31T06:00:41;13.00;99.90
57753;DHT22;43583;53.132;6.574;2023-08-31T06:03:07;13.10;99.90
57753;DHT22;43583;53.132;6.574;2023-08-31T06:05:33;13.30;99.90
57753;DHT22;43583;53.132;6.574;2023-08-31T06:07:58;14.30;99.90
57753;DHT22;43583;53.132;6.574;2023-08-31T06:10:24;15.60;99.90
57753;DHT22;43583;53.132;6.574;2023-08-31T06:12:50;17.00;99.90
57753;DHT22;43583;53.132;6.574;2023-08-31T06:15:16;18.20;99.90
57753;DHT22;43583;53.132;6.574;2023-08-31T06:17:42;19.20;99.90
57753;DHT22;43583;53.132;6.574;2023-08-31T06:20:08;20.10;99.90
57753;DHT22;43583;53.132;6.574;2023-08-31T06:22:34;20.90;99.90
57753;DHT22;43583;53.132;6.574;2023-08-31T06:25:00;21.80;99.90
57753;DHT22;43583;53.132;6.574;2023-08-31T06:27:26;22.50;99.90
57753;DHT22;43583;53.132;6.574;2023-08-31T06:29:52;23.10;99.90
57753;DHT22;43583;53.132;6.574;2023-08-31T06:32:18;23.70;99.90
57753;DHT22;43583;53.132;6.574;2023-08-31T06:34:44;24.40;99.90
57753;DHT22;43583;53.132;6.574;2023-08-31T06:37:10;24.20;99.90
57753;DHT22;43583;53.132;6.574;2023-08-31T06:39:35;23.60;99.90
57753;DHT22;43583;53.132;6.574;2023-08-31T06:42:02;22.90;99.90
57753;DHT22;43583;53.132;6.574;2023-08-31T06:44:27;22.80;99.90
57753;DHT22;43583;53.132;6.574;2023-08-31T06:46:55;23.40;99.90
57753;DHT22;43583;53.132;6.574;2023-08-31T06:49:21;23.90;99.90
57753;DHT22;43583;53.132;6.574;2023-08-31T06:51:47;24.40;99.90
57753;DHT22;43583;53.132;6.574;2023-08-31T06:54:12;25.00;99.90
57753;DHT22;43583;53.132;6.574;2023-08-31T06:56:38;25.40;99.90
57753;DHT22;43583;53.132;6.574;2023-08-31T06:59:03;25.80;99.90
57753;DHT22;43583;53.132;6.574;2023-08-31T07:01:29;26.20;99.90
57753;DHT22;43583;53.132;6.574;2023-08-31T07:03:55;26.50;99.90
57753;DHT22;43583;53.132;6.574;2023-08-31T07:06:21;26.70;99.40
57753;DHT22;43583;53.132;6.574;2023-08-31T07:08:46;26.90;98.40
57753;DHT22;43583;53.132;6.574;2023-08-31T07:11:13;27.00;97.30
57753;DHT22;43583;53.132;6.574;2023-08-31T07:13:39;26.90;96.00
57753;DHT22;43583;53.132;6.574;2023-08-31T07:16:05;27.00;96.20
57753;DHT22;43583;53.132;6.574;2023-08-31T07:18:31;27.10;95.70
57753;DHT22;43583;53.132;6.574;2023-08-31T07:20:57;27.50;94.70
57753;DHT22;43583;53.132;6.574;2023-08-31T07:23:23;27.80;94.00
57753;DHT22;43583;53.132;6.574;2023-08-31T07:25:48;28.00;93.60
57753;DHT22;43583;53.132;6.574;2023-08-31T07:28:14;28.40;92.80
57753;DHT22;43583;53.132;6.574;2023-08-31T07:30:40;28.50;92.50
57753;DHT22;43583;53.132;6.574;2023-08-31T07:33:07;28.80;91.70
57753;DHT22;43583;53.132;6.574;2023-08-31T07:35:32;29.00;91.10
57753;DHT22;43583;53.132;6.574;2023-08-31T07:37:58;29.20;90.30
57753;DHT22;43583;53.132;6.574;2023-08-31T07:40:24;29.40;88.90
57753;DHT22;43583;53.132;6.574;2023-08-31T07:42:50;29.60;86.80
57753;DHT22;43583;53.132;6.574;2023-08-31T07:45:16;29.50;85.10
57753;DHT22;43583;53.132;6.574;2023-08-31T07:47:42;29.50;84.40
57753;DHT22;43583;53.132;6.574;2023-08-31T07:50:08;29.60;82.90
57753;DHT22;43583;53.132;6.574;2023-08-31T07:52:34;29.60;81.80
57753;DHT22;43583;53.132;6.574;2023-08-31T07:55:00;29.40;81.10
57753;DHT22;43583;53.132;6.574;2023-08-31T07:57:26;29.20;80.90
57753;DHT22;43583;53.132;6.574;2023-08-31T07:59:51;29.10;80.80
57753;DHT22;43583;53.132;6.574;2023-08-31T08:02:17;29.30;80.90
57753;DHT22;43583;53.132;6.574;2023-08-31T08:04:45;29.40;78.90
57753;DHT22;43583;53.132;6.574;2023-08-31T08:07:10;29.30;79.00
57753;DHT22;43583;53.132;6.574;2023-08-31T08:09:36;29.40;77.90
57753;DHT22;43583;53.132;6.574;2023-08-31T08:12:01;29.20;77.40
57753;DHT22;43583;53.132;6.574;2023-08-31T08:14:28;29.30;77.80
57753;DHT22;43583;53.132;6.574;2023-08-31T08:16:53;29.50;79.00
57753;DHT22;43583;53.132;6.574;2023-08-31T08:19:23;29.50;77.50
57753;DHT22;43583;53.132;6.574;2023-08-31T08:21:50;29.50;76.90
57753;DHT22;43583;53.132;6.574;2023-08-31T08:24:15;29.50;74.50
57753;DHT22;43583;53.132;6.574;2023-08-31T08:26:41;29.30;74.20
57753;DHT22;43583;53.132;6.574;2023-08-31T08:29:06;28.70;74.30
57753;DHT22;43583;53.132;6.574;2023-08-31T08:31:32;28.10;76.40
57753;DHT22;43583;53.132;6.574;2023-08-31T08:33:57;27.80;78.20
57753;DHT22;43583;53.132;6.574;2023-08-31T08:36:23;27.70;79.00
57753;DHT22;43583;53.132;6.574;2023-08-31T08:38:48;27.40;79.50
57753;DHT22;43583;53.132;6.574;2023-08-31T08:41:14;27.10;81.00
57753;DHT22;43583;53.132;6.574;2023-08-31T08:43:46;27.10;81.70
57753;DHT22;43583;53.132;6.574;2023-08-31T08:46:12;27.70;81.80
57753;DHT22;43583;53.132;6.574;2023-08-31T08:48:38;28.30;80.00
57753;DHT22;43583;53.132;6.574;2023-08-31T08:51:04;28.70;77.50
57753;DHT22;43583;53.132;6.574;2023-08-31T08:53:30;29.10;76.40
57753;DHT22;43583;53.132;6.574;2023-08-31T08:55:55;28.90;75.40
57753;DHT22;43583;53.132;6.574;2023-08-31T08:58:21;27.90;75.60
57753;DHT22;43583;53.132;6.574;2023-08-31T09:00:48;27.70;76.60
57753;DHT22;43583;53.132;6.574;2023-08-31T09:03:13;28.20;75.80
57753;DHT22;43583;53.132;6.574;2023-08-31T09:05:39;28.90;76.00
57753;DHT22;43583;53.132;6.574;2023-08-31T09:08:08;29.40;74.50
57753;DHT22;43583;53.132;6.574;2023-08-31T09:10:45;29.90;74.40
57753;DHT22;43583;53.132;6.574;2023-08-31T09:13:11;29.40;71.30
57753;DHT22;43583;53.132;6.574;2023-08-31T09:15:44;28.30;72.40
57753;DHT22;43583;53.132;6.574;2023-08-31T09:20:49;24.40;78.00
57753;DHT22;43583;53.132;6.574;2023-08-31T09:23:15;22.70;84.30
57753;DHT22;43583;53.132;6.574;2023-08-31T09:25:46;21.40;91.00
57753;DHT22;43583;53.132;6.574;2023-08-31T09:28:14;20.30;95.20
57753;DHT22;43583;53.132;6.574;2023-08-31T09:30:40;19.50;99.10
57753;DHT22;43583;53.132;6.574;2023-08-31T09:33:10;18.70;99.90
57753;DHT22;43583;53.132;6.574;2023-08-31T09:35:39;18.60;99.90
57753;DHT22;43583;53.132;6.574;2023-08-31T09:38:09;19.10;99.90
57753;DHT22;43583;53.132;6.574;2023-08-31T09:40:36;19.90;99.90
57753;DHT22;43583;53.132;6.574;2023-08-31T09:43:02;20.40;99.90
57753;DHT22;43583;53.132;6.574;2023-08-31T09:45:32;20.50;99.90
57753;DHT22;43583;53.132;6.574;2023-08-31T09:48:02;20.60;99.90
57753;DHT22;43583;53.132;6.574;2023-08-31T09:50:30;20.30;99.90
57753;DHT22;43583;53.132;6.574;2023-08-31T09:53:02;20.10;99.90
57753;DHT22;43583;53.132;6.574;2023-08-31T09:55:29;19.80;99.90
57753;DHT22;43583;53.132;6.574;2023-08-31T09:57:57;19.60;99.90
57753;DHT22;43583;53.132;6.574;2023-08-31T10:00:27;19.70;99.90
57753;DHT22;43583;53.132;6.574;2023-08-31T10:03:00;20.00;99.90
57753;DHT22;43583;53.132;6.574;2023-08-31T10:05:26;20.50;99.90
57753;DHT22;43583;53.132;6.574;2023-08-31T10:07:52;20.70;99.90
57753;DHT22;43583;53.132;6.574;2023-08-31T10:10:18;20.40;99.90
57753;DHT22;43583;53.132;6.574;2023-08-31T10:12:45;19.80;99.90
57753;DHT22;43583;53.132;6.574;2023-08-31T10:15:12;19.00;99.90
57753;DHT22;43583;53.132;6.574;2023-08-31T10:17:39;18.40;99.90
57753;DHT22;43583;53.132;6.574;2023-08-31T10:20:07;18.00;99.90
57753;DHT22;43583;53.132;6.574;2023-08-31T10:22:33;17.70;99.90
57753;DHT22;43583;53.132;6.574;2023-08-31T10:25:01;17.50;99.90
57753;DHT22;43583;53.132;6.574;2023-08-31T10:27:43;17.40;99.90
57753;DHT22;43583;53.132;6.574;2023-08-31T10:35:51;17.50;99.90
57753;DHT22;43583;53.132;6.574;2023-08-31T10:38:27;17.90;99.90
57753;DHT22;43583;53.132;6.574;2023-08-31T10:43:44;18.90;99.90
57753;DHT22;43583;53.132;6.574;2023-08-31T10:48:55;19.70;99.90
57753;DHT22;43583;53.132;6.574;2023-08-31T10:51:25;20.00;99.90
57753;DHT22;43583;53.132;6.574;2023-08-31T10:53:51;19.90;99.90
57753;DHT22;43583;53.132;6.574;2023-08-31T10:56:18;19.60;99.90
57753;DHT22;43583;53.132;6.574;2023-08-31T10:58:56;19.40;99.90
57753;DHT22;43583;53.132;6.574;2023-08-31T11:04:59;18.80;99.90
57753;DHT22;43583;53.132;6.574;2023-08-31T11:07:26;18.30;99.90
57753;DHT22;43583;53.132;6.574;2023-08-31T11:10:06;18.00;99.90
57753;DHT22;43583;53.132;6.574;2023-08-31T11:12:32;17.80;99.90
57753;DHT22;43583;53.132;6.574;2023-08-31T11:14:58;17.70;99.90
57753;DHT22;43583;53.132;6.574;2023-08-31T11:17:24;17.70;99.90
57753;DHT22;43583;53.132;6.574;2023-08-31T11:19:50;17.80;99.90
57753;DHT22;43583;53.132;6.574;2023-08-31T11:22:15;18.00;99.90
57753;DHT22;43583;53.132;6.574;2023-08-31T11:24:41;18.40;99.90
57753;DHT22;43583;53.132;6.574;2023-08-31T11:27:10;18.80;99.90
57753;DHT22;43583;53.132;6.574;2023-08-31T11:29:43;19.10;99.90
57753;DHT22;43583;53.132;6.574;2023-08-31T11:32:09;19.40;99.90
57753;DHT22;43583;53.132;6.574;2023-08-31T11:34:39;19.70;99.90
57753;DHT22;43583;53.132;6.574;2023-08-31T11:37:05;20.00;99.90
57753;DHT22;43583;53.132;6.574;2023-08-31T11:39:31;20.20;99.90
57753;DHT22;43583;53.132;6.574;2023-08-31T11:41:57;20.10;99.90
57753;DHT22;43583;53.132;6.574;2023-08-31T11:44:23;19.80;99.90
57753;DHT22;43583;53.132;6.574;2023-08-31T11:46:49;19.40;99.90
57753;DHT22;43583;53.132;6.574;2023-08-31T11:49:16;19.00;99.90
57753;DHT22;43583;53.132;6.574;2023-08-31T11:51:43;18.80;99.90
57753;DHT22;43583;53.132;6.574;2023-08-31T11:54:10;18.70;99.90
57753;DHT22;43583;53.132;6.574;2023-08-31T11:56:41;19.10;99.90
57753;DHT22;43583;53.132;6.574;2023-08-31T11:59:11;19.40;99.90
57753;DHT22;43583;53.132;6.574;2023-08-31T12:01:47;19.90;99.90
57753;DHT22;43583;53.132;6.574;2023-08-31T12:04:15;20.20;99.90
57753;DHT22;43583;53.132;6.574;2023-08-31T12:06:41;20.50;99.90
57753;DHT22;43583;53.132;6.574;2023-08-31T12:09:10;20.90;99.90
57753;DHT22;43583;53.132;6.574;2023-08-31T12:11:36;21.20;99.90
57753;DHT22;43583;53.132;6.574;2023-08-31T12:14:03;21.00;99.90
57753;DHT22;43583;53.132;6.574;2023-08-31T12:16:35;20.80;99.90
57753;DHT22;43583;53.132;6.574;2023-08-31T12:19:05;20.40;99.90
57753;DHT22;43583;53.132;6.574;2023-08-31T12:21:33;20.00;99.90
57753;DHT22;43583;53.132;6.574;2023-08-31T12:23:59;19.70;99.90
57753;DHT22;43583;53.132;6.574;2023-08-31T12:26:26;19.60;99.90
57753;DHT22;43583;53.132;6.574;2023-08-31T12:28:51;19.80;99.90
57753;DHT22;43583;53.132;6.574;2023-08-31T12:31:17;20.10;99.90
57753;DHT22;43583;53.132;6.574;2023-08-31T12:33:43;20.30;99.90
57753;DHT22;43583;53.132;6.574;2023-08-31T12:36:08;20.50;99.90
57753;DHT22;43583;53.132;6.574;2023-08-31T12:38:34;20.70;99.90
57753;DHT22;43583;53.132;6.574;2023-08-31T12:41:00;20.80;99.90
57753;DHT22;43583;53.132;6.574;2023-08-31T12:43:28;20.80;99.90
57753;DHT22;43583;53.132;6.574;2023-08-31T12:45:55;20.80;99.90
57753;DHT22;43583;53.132;6.574;2023-08-31T12:48:20;20.60;99.90
57753;DHT22;43583;53.132;6.574;2023-08-31T12:50:46;20.30;99.90
57753;DHT22;43583;53.132;6.574;2023-08-31T12:53:14;19.90;99.90
57753;DHT22;43583;53.132;6.574;2023-08-31T12:55:39;19.60;99.90
57753;DHT22;43583;53.132;6.574;2023-08-31T12:58:05;19.50;99.90
57753;DHT22;43583;53.132;6.574;2023-08-31T13:00:31;19.30;99.90
57753;DHT22;43583;53.132;6.574;2023-08-31T13:02:56;19.40;99.90
57753;DHT22;43583;53.132;6.574;2023-08-31T13:05:22;19.70;99.90
57753;DHT22;43583;53.132;6.574;2023-08-31T13:07:47;19.90;99.90
57753;DHT22;43583;53.132;6.574;2023-08-31T13:10:13;20.00;99.90
57753;DHT22;43583;53.132;6.574;2023-08-31T13:12:39;20.00;99.90
57753;DHT22;43583;53.132;6.574;2023-08-31T13:15:05;20.00;99.90
57753;DHT22;43583;53.132;6.574;2023-08-31T13:17:31;19.80;99.90
57753;DHT22;43583;53.132;6.574;2023-08-31T13:19:57;19.60;99.90
57753;DHT22;43583;53.132;6.574;2023-08-31T13:22:23;19.60;99.90
57753;DHT22;43583;53.132;6.574;2023-08-31T13:24:49;19.80;99.90
57753;DHT22;43583;53.132;6.574;2023-08-31T13:27:15;20.20;99.90
57753;DHT22;43583;53.132;6.574;2023-08-31T13:29:41;20.40;99.90
57753;DHT22;43583;53.132;6.574;2023-08-31T13:32:07;20.80;99.90
57753;DHT22;43583;53.132;6.574;2023-08-31T13:34:33;21.00;99.90
57753;DHT22;43583;53.132;6.574;2023-08-31T13:36:59;21.10;99.90
57753;DHT22;43583;53.132;6.574;2023-08-31T13:39:26;21.10;99.90
57753;DHT22;43583;53.132;6.574;2023-08-31T13:41:51;21.20;99.90
57753;DHT22;43583;53.132;6.574;2023-08-31T13:44:19;21.30;99.90
57753;DHT22;43583;53.132;6.574;2023-08-31T13:46:48;21.30;99.90
57753;DHT22;43583;53.132;6.574;2023-08-31T13:49:15;21.00;99.90
57753;DHT22;43583;53.132;6.574;2023-08-31T13:51:41;20.70;99.90
57753;DHT22;43583;53.132;6.574;2023-08-31T13:54:07;20.50;99.90
57753;DHT22;43583;53.132;6.574;2023-08-31T13:56:34;20.10;99.90
57753;DHT22;43583;53.132;6.574;2023-08-31T13:58:59;19.80;99.90
57753;DHT22;43583;53.132;6.574;2023-08-31T14:01:25;19.50;99.90
57753;DHT22;43583;53.132;6.574;2023-08-31T14:03:51;19.40;99.90
57753;DHT22;43583;53.132;6.574;2023-08-31T14:06:17;19.40;99.90
57753;DHT22;43583;53.132;6.574;2023-08-31T14:08:45;19.50;99.90
57753;DHT22;43583;53.132;6.574;2023-08-31T14:11:11;19.60;99.90
57753;DHT22;43583;53.132;6.574;2023-08-31T14:13:37;19.70;99.90
57753;DHT22;43583;53.132;6.574;2023-08-31T14:16:02;19.80;99.90
57753;DHT22;43583;53.132;6.574;2023-08-31T14:18:29;19.90;99.90
57753;DHT22;43583;53.132;6.574;2023-08-31T14:20:56;20.00;99.90
57753;DHT22;43583;53.132;6.574;2023-08-31T14:23:23;20.10;99.90
57753;DHT22;43583;53.132;6.574;2023-08-31T14:25:48;20.20;99.90
57753;DHT22;43583;53.132;6.574;2023-08-31T14:28:14;20.30;99.90
57753;DHT22;43583;53.132;6.574;2023-08-31T14:30:40;20.40;99.90
57753;DHT22;43583;53.132;6.574;2023-08-31T14:33:05;20.40;99.90
57753;DHT22;43583;53.132;6.574;2023-08-31T14:35:31;20.30;99.90
57753;DHT22;43583;53.132;6.574;2023-08-31T14:37:57;20.30;99.90
57753;DHT22;43583;53.132;6.574;2023-08-31T14:40:23;20.40;99.90
57753;DHT22;43583;53.132;6.574;2023-08-31T14:42:49;20.40;99.90
57753;DHT22;43583;53.132;6.574;2023-08-31T14:45:15;20.20;99.90
57753;DHT22;43583;53.132;6.574;2023-08-31T14:47:40;20.20;99.90
57753;DHT22;43583;53.132;6.574;2023-08-31T14:50:07;20.00;99.90
57753;DHT22;43583;53.132;6.574;2023-08-31T14:52:33;19.80;99.90
57753;DHT22;43583;53.132;6.574;2023-08-31T14:55:00;19.60;99.90
57753;DHT22;43583;53.132;6.574;2023-08-31T14:57:25;19.30;99.90
57753;DHT22;43583;53.132;6.574;2023-08-31T14:59:51;19.20;99.90
57753;DHT22;43583;53.132;6.574;2023-08-31T15:02:20;19.10;99.90
57753;DHT22;43583;53.132;6.574;2023-08-31T15:04:48;19.00;99.90
57753;DHT22;43583;53.132;6.574;2023-08-31T15:07:15;19.00;99.90
57753;DHT22;43583;53.132;6.574;2023-08-31T15:09:42;19.00;99.90
57753;DHT22;43583;53.132;6.574;2023-08-31T15:12:07;19.00;99.90
57753;DHT22;43583;53.132;6.574;2023-08-31T15:14:33;19.00;99.90
57753;DHT22;43583;53.132;6.574;2023-08-31T15:16:59;19.00;99.90
57753;DHT22;43583;53.132;6.574;2023-08-31T15:19:25;18.90;99.90
57753;DHT22;43583;53.132;6.574;2023-08-31T15:21:50;18.90;99.90
57753;DHT22;43583;53.132;6.574;2023-08-31T15:24:16;18.90;99.90
57753;DHT22;43583;53.132;6.574;2023-08-31T15:26:42;18.80;99.90
57753;DHT22;43583;53.132;6.574;2023-08-31T15:29:09;18.90;99.90
57753;DHT22;43583;53.132;6.574;2023-08-31T15:31:34;19.00;99.90
57753;DHT22;43583;53.132;6.574;2023-08-31T15:34:00;19.10;99.90
57753;DHT22;43583;53.132;6.574;2023-08-31T15:36:26;19.10;99.90
57753;DHT22;43583;53.132;6.574;2023-08-31T15:38:52;19.20;99.90
57753;DHT22;43583;53.132;6.574;2023-08-31T15:41:18;19.20;99.90
57753;DHT22;43583;53.132;6.574;2023-08-31T15:43:44;19.20;99.90
57753;DHT22;43583;53.132;6.574;2023-08-31T15:46:09;19.10;99.90
57753;DHT22;43583;53.132;6.574;2023-08-31T15:48:37;19.00;99.90